Time;durP1;ratioP1;P1;durP2;ratioP2;P2;SDS_P1;SDS_P2;PMS_P1;PMS_P2;Temp;Humidity;BMP_temperature;BMP_pressure;BME280_temperature;BME280_humidity;BME280_pressure;Samples;Min_cycle;Max_cycle;Signal;HPM_P1;HPM_P2
2023/09/05 00:00:01;;;;;;;6.90;3.92;;;;;;;22.86;63.72;102233.38;5090912;27;102370;-69
2023/09/05 00:02:27;;;;;;;6.63;4.53;;;;;;;22.82;63.44;102236.38;5092471;27;99492;-69
2023/09/05 00:04:55;;;;;;;6.88;4.47;;;;;;;22.72;63.30;102240.56;5092990;27;99061;-69
2023/09/05 00:07:21;;;;;;;8.00;4.28;;;;;;;22.75;62.81;102235.03;5092182;27;96802;-68
2023/09/05 00:09:48;;;;;;;6.32;3.97;;;;;;;22.77;63.17;102244.78;5093603;27;96972;-68
2023/09/05 00:12:14;;;;;;;11.32;3.70;;;;;;;22.67;63.11;102235.47;5092613;27;97617;-68
2023/09/05 00:14:42;;;;;;;7.22;3.40;;;;;;;22.91;61.59;102235.78;5094017;27;97567;-69
2023/09/05 00:17:08;;;;;;;4.72;2.92;;;;;;;22.75;61.79;102229.66;5089468;27;98775;-69
2023/09/05 00:19:35;;;;;;;6.43;3.10;;;;;;;23.01;60.91;102227.03;5091235;27;96842;-68
2023/09/05 00:22:01;;;;;;;6.65;3.42;;;;;;;23.09;60.33;102228.38;5090848;27;99260;-68
2023/09/05 00:24:31;;;;;;;4.72;2.90;;;;;;;23.15;60.33;102228.84;5094105;27;99624;-67
2023/09/05 00:26:58;;;;;;;3.42;3.00;;;;;;;23.24;59.96;102230.03;5093496;27;98628;-68
2023/09/05 00:29:26;;;;;;;5.15;3.70;;;;;;;23.07;60.47;102228.47;5091090;27;96896;-68
2023/09/05 00:31:54;;;;;;;5.85;3.10;;;;;;;23.15;60.94;102223.44;5091293;27;98940;-68
2023/09/05 00:34:20;;;;;;;5.43;2.97;;;;;;;22.77;62.50;102228.59;5089152;27;101401;-68
2023/09/05 00:36:48;;;;;;;3.13;2.90;;;;;;;22.94;61.23;102214.91;5091779;27;98774;-68
2023/09/05 00:39:16;;;;;;;4.13;2.88;;;;;;;22.91;61.39;102217.78;5092597;27;97025;-68
2023/09/05 00:41:43;;;;;;;4.85;2.88;;;;;;;22.91;61.23;102219.59;5091985;27;99850;-67
2023/09/05 00:44:13;;;;;;;5.45;2.60;;;;;;;22.94;60.93;102222.13;5092589;27;97823;-69
2023/09/05 00:46:40;;;;;;;9.52;3.00;;;;;;;23.08;60.47;102216.72;5088422;27;96942;-67
2023/09/05 00:49:10;;;;;;;4.47;3.00;;;;;;;23.00;60.70;102219.91;5091658;27;97106;-68
2023/09/05 00:51:37;;;;;;;7.97;2.85;;;;;;;23.04;60.70;102221.41;5090138;27;98914;-69
2023/09/05 00:54:06;;;;;;;2.90;2.70;;;;;;;23.10;60.53;102213.91;5093864;27;97496;-70
2023/09/05 00:56:36;;;;;;;4.07;2.90;;;;;;;22.99;60.59;102206.50;5089637;27;98835;-70
2023/09/05 00:59:03;;;;;;;4.90;2.45;;;;;;;22.93;60.81;102213.16;5093311;27;98877;-70
2023/09/05 01:01:29;;;;;;;4.82;2.63;;;;;;;23.00;61.11;102203.72;5091229;27;99429;-70
2023/09/05 01:03:57;;;;;;;2.85;2.65;;;;;;;22.91;61.22;102203.44;5091486;27;99038;-69
2023/09/05 01:06:34;;;;;;;4.90;3.00;;;;;;;22.86;61.53;102200.19;5090328;27;96924;-69
2023/09/05 01:09:06;;;;;;;;;;;;;;;22.84;61.95;102202.13;5090950;27;96974;-68
2023/09/05 01:11:33;;;;;;;6.53;2.58;;;;;;;22.87;61.60;102201.91;5089869;27;99075;-68
2023/09/05 01:13:59;;;;;;;4.05;2.72;;;;;;;22.92;61.27;102200.66;5090843;27;98176;-69
2023/09/05 01:16:26;;;;;;;6.72;3.00;;;;;;;22.82;61.44;102190.56;5090207;27;96823;-69
2023/09/05 01:18:52;;;;;;;4.05;3.40;;;;;;;22.51;62.91;102187.06;5090441;27;98038;-68
2023/09/05 01:21:27;;;;;;;7.28;3.40;;;;;;;22.54;62.59;102186.03;5090177;27;98997;-69
2023/09/05 01:24:01;;;;;;;3.55;2.95;;;;;;;22.71;62.19;102187.66;5092420;27;99173;-69
2023/09/05 01:26:29;;;;;;;5.07;3.20;;;;;;;22.43;63.26;102185.84;5091711;27;96775;-69
2023/09/05 01:28:56;;;;;;;3.65;3.00;;;;;;;22.52;62.76;102193.34;5092219;27;96947;-69
2023/09/05 01:31:23;;;;;;;4.25;2.80;;;;;;;22.65;62.08;102184.38;5087541;27;101453;-68
2023/09/05 01:33:50;;;;;;;3.60;2.70;;;;;;;22.79;61.65;102188.06;5090413;27;98942;-69
2023/09/05 01:36:16;;;;;;;4.18;3.10;;;;;;;22.57;62.26;102188.53;5091811;27;98309;-68
2023/09/05 01:38:43;;;;;;;3.55;3.08;;;;;;;22.53;62.48;102185.16;5093128;27;97909;-68
2023/09/05 01:41:09;;;;;;;5.95;3.00;;;;;;;22.61;62.13;102185.56;5092080;27;98427;-67
2023/09/05 01:43:37;;;;;;;3.42;3.08;;;;;;;22.57;62.43;102177.78;5090729;27;98250;-69
2023/09/05 01:46:04;;;;;;;5.10;3.20;;;;;;;22.59;62.36;102187.47;5088319;27;96833;-68
2023/09/05 01:48:30;;;;;;;3.38;3.08;;;;;;;22.64;62.08;102174.56;5086205;27;98275;-67
2023/09/05 01:50:57;;;;;;;4.82;2.85;;;;;;;22.70;61.67;102177.84;5090778;27;98853;-69
2023/09/05 01:53:23;;;;;;;3.40;2.85;;;;;;;22.66;61.73;102180.72;5096946;27;99270;-68
2023/09/05 01:55:50;;;;;;;3.15;2.70;;;;;;;22.71;61.40;102175.03;5099619;27;97667;-69
2023/09/05 01:58:16;;;;;;;4.75;2.88;;;;;;;22.72;61.79;102168.69;5095897;27;97484;-68
2023/09/05 02:00:44;;;;;;;3.10;2.70;;;;;;;22.70;61.65;102173.34;5092863;27;98891;-69
2023/09/05 02:03:10;;;;;;;4.95;2.83;;;;;;;22.78;61.33;102180.94;5092394;27;99280;-67
2023/09/05 02:05:37;;;;;;;5.28;2.90;;;;;;;22.61;61.92;102174.78;5097259;27;98614;-69
2023/09/05 02:08:05;;;;;;;4.25;3.00;;;;;;;22.57;61.99;102173.25;5093112;27;96932;-69
2023/09/05 02:10:31;;;;;;;4.63;3.05;;;;;;;22.56;62.04;102167.94;5087440;27;99224;-68
2023/09/05 02:12:58;;;;;;;3.30;2.75;;;;;;;22.51;62.22;102159.31;5095319;27;98795;-68
2023/09/05 02:15:24;;;;;;;3.63;3.22;;;;;;;22.56;62.20;102166.13;5094204;27;96781;-68
2023/09/05 02:17:55;;;;;;;7.88;3.38;;;;;;;22.56;61.75;102160.72;5089289;27;99514;-68
2023/09/05 02:20:22;;;;;;;4.80;2.75;;;;;;;22.63;61.48;102156.69;5095539;27;98912;-68
2023/09/05 02:22:48;;;;;;;8.15;3.28;;;;;;;22.54;61.88;102156.41;5090668;27;98779;-68
2023/09/05 02:25:14;;;;;;;5.32;2.40;;;;;;;22.41;62.33;102147.34;5091637;27;96837;-68
2023/09/05 02:27:41;;;;;;;4.95;3.00;;;;;;;22.53;61.88;102149.28;5093167;27;96890;-68
2023/09/05 02:30:08;;;;;;;5.18;2.80;;;;;;;22.44;61.76;102145.34;5090686;27;99547;-68
2023/09/05 02:32:34;;;;;;;5.57;3.10;;;;;;;22.34;62.66;102138.81;5089363;27;99194;-69
2023/09/05 02:35:04;;;;;;;4.63;3.15;;;;;;;22.35;62.72;102137.84;5092763;27;96938;-69
2023/09/05 02:37:30;;;;;;;8.93;3.20;;;;;;;22.30;62.67;102139.09;5090674;27;97898;-69
2023/09/05 02:39:56;;;;;;;2.67;2.47;;;;;;;22.39;62.64;102138.50;5089665;27;98261;-67
2023/09/05 02:42:23;;;;;;;3.25;2.70;;;;;;;22.42;62.41;102141.03;5091825;27;98775;-68
2023/09/05 02:44:51;;;;;;;6.80;2.90;;;;;;;22.40;62.10;102141.09;5091948;27;96842;-68
2023/09/05 02:47:17;;;;;;;4.25;2.83;;;;;;;22.37;62.16;102137.75;5088585;27;98074;-69
2023/09/05 02:49:43;;;;;;;4.50;2.75;;;;;;;22.59;61.33;102143.50;5088471;27;102072;-70
2023/09/05 02:52:12;;;;;;;3.33;2.80;;;;;;;22.46;61.42;102140.72;5090232;27;98449;-69
2023/09/05 02:54:38;;;;;;;7.00;2.70;;;;;;;22.31;62.01;102143.53;5090504;27;98059;-69
2023/09/05 02:57:04;;;;;;;6.38;3.03;;;;;;;22.27;62.35;102145.53;5090629;27;99001;-69
2023/09/05 02:59:31;;;;;;;3.08;2.50;;;;;;;22.30;62.12;102139.97;5083934;27;99219;-68
2023/09/05 03:05:21;;;;;;;6.03;3.13;;;;;;;22.40;61.85;102146.50;5082309;27;100276;-69
2023/09/05 03:07:49;;;;;;;5.22;2.88;;;;;;;22.47;61.41;102145.16;5088476;27;96981;-69
2023/09/05 03:10:16;;;;;;;3.95;2.90;;;;;;;22.43;61.62;102154.41;5090705;27;99271;-69
2023/09/05 03:12:44;;;;;;;4.93;2.58;;;;;;;22.24;61.99;102149.31;5091219;27;98841;-68
2023/09/05 03:15:10;;;;;;;7.18;3.00;;;;;;;22.35;61.96;102145.94;5091138;27;96878;-67
2023/09/05 03:17:37;;;;;;;5.13;2.83;;;;;;;22.44;61.76;102142.66;5088257;27;96953;-68
2023/09/05 03:20:04;;;;;;;4.15;2.70;;;;;;;22.42;61.94;102136.50;5085847;27;98980;-68
2023/09/05 03:22:30;;;;;;;3.65;2.75;;;;;;;22.32;62.25;102139.88;5086124;27;97727;-68
2023/09/05 03:24:58;;;;;;;3.13;2.63;;;;;;;22.39;62.59;102138.50;5089902;27;96828;-68
2023/09/05 03:27:24;;;;;;;3.15;2.58;;;;;;;22.31;63.00;102135.44;5086387;27;97656;-68
2023/09/05 03:29:50;;;;;;;4.18;2.70;;;;;;;22.33;62.99;102137.06;5088718;27;99281;-68
2023/09/05 03:32:17;;;;;;;6.00;2.90;;;;;;;22.25;62.93;102134.84;5089395;27;98891;-69
2023/09/05 03:34:48;;;;;;;6.10;3.05;;;;;;;22.27;62.77;102135.63;5089667;27;99346;-69
2023/09/05 03:37:15;;;;;;;4.53;2.90;;;;;;;22.15;63.10;102132.84;5087690;27;96874;-68
2023/09/05 03:39:41;;;;;;;3.97;2.78;;;;;;;22.31;62.58;102128.25;5086338;27;99035;-68
2023/09/05 03:42:09;;;;;;;4.68;2.95;;;;;;;22.23;62.73;102131.41;5092548;27;98929;-68
2023/09/05 03:44:35;;;;;;;5.15;2.83;;;;;;;22.23;62.80;102123.34;5093913;27;96788;-68
2023/09/05 03:47:02;;;;;;;5.55;3.00;;;;;;;22.10;63.15;102130.44;5089558;27;97142;-68
2023/09/05 03:49:28;;;;;;;7.72;3.20;;;;;;;22.22;62.71;102128.81;5087418;27;99040;-68
2023/09/05 03:51:57;;;;;;;7.38;3.40;;;;;;;22.10;62.94;102130.44;5092004;27;97484;-68
2023/09/05 03:54:23;;;;;;;4.75;2.83;;;;;;;22.12;62.55;102136.56;5090176;27;97984;-68
2023/09/05 03:56:50;;;;;;;3.67;3.15;;;;;;;21.97;63.05;102136.66;5091192;27;96701;-68
2023/09/05 03:59:17;;;;;;;7.10;2.85;;;;;;;21.85;63.67;102136.44;5096853;27;99345;-68
2023/09/05 04:01:44;;;;;;;3.38;2.83;;;;;;;21.94;63.62;102139.50;5090883;27;98727;-69
2023/09/05 04:04:10;;;;;;;7.32;2.70;;;;;;;21.99;63.41;102145.53;5091061;27;96850;-68
2023/09/05 04:06:38;;;;;;;4.40;3.00;;;;;;;21.90;63.93;102146.03;5093667;27;97387;-69
2023/09/05 04:09:04;;;;;;;6.47;3.40;;;;;;;21.92;63.49;102145.00;5091242;27;99133;-68
2023/09/05 04:11:30;;;;;;;4.80;3.33;;;;;;;21.99;63.17;102153.59;5086997;27;100708;-68
2023/09/05 04:13:57;;;;;;;4.72;3.00;;;;;;;22.06;62.93;102149.53;5096742;27;97556;-68
2023/09/05 04:16:24;;;;;;;4.40;3.30;;;;;;;21.90;63.65;102151.44;5096460;27;96881;-67
2023/09/05 04:18:51;;;;;;;10.57;5.82;;;;;;;21.84;63.67;102158.06;5090511;27;100714;-67
2023/09/05 04:21:17;;;;;;;7.78;3.50;;;;;;;21.95;63.36;102160.94;5086435;27;99104;-68
2023/09/05 04:23:43;;;;;;;6.95;3.53;;;;;;;21.85;63.37;102159.78;5089673;27;96842;-67
2023/09/05 04:26:10;;;;;;;6.80;3.92;;;;;;;22.15;62.51;102167.84;5090409;27;96924;-69
2023/09/05 04:28:36;;;;;;;3.88;2.75;;;;;;;21.78;63.56;102161.97;5084708;27;99195;-68
2023/09/05 04:31:04;;;;;;;4.93;3.25;;;;;;;21.87;63.41;102168.59;5089481;27;99041;-69
2023/09/05 04:33:37;;;;;;;7.00;3.17;;;;;;;22.01;62.81;102168.69;5088530;27;97208;-68
2023/09/05 04:36:04;;;;;;;6.10;3.78;;;;;;;21.98;63.24;102168.00;5088950;27;97585;-69
2023/09/05 04:38:30;;;;;;;5.18;3.25;;;;;;;22.08;62.72;102166.47;5087971;27;98904;-68
2023/09/05 04:41:01;;;;;;;7.50;3.50;;;;;;;21.89;63.35;102166.69;5095021;27;99154;-68
2023/09/05 04:43:27;;;;;;;7.20;3.42;;;;;;;21.78;63.76;102166.50;5094914;27;100974;-68
2023/09/05 04:45:54;;;;;;;6.90;3.95;;;;;;;21.84;63.34;102171.50;5092506;27;96913;-69
2023/09/05 04:48:20;;;;;;;6.05;3.47;;;;;;;21.92;63.29;102171.03;5092896;27;99490;-69
2023/09/05 04:50:48;;;;;;;5.43;3.65;;;;;;;21.95;63.12;102165.47;5091734;27;99275;-70
2023/09/05 04:53:15;;;;;;;5.65;3.40;;;;;;;22.11;62.69;102175.25;5092013;27;96787;-69
2023/09/05 04:55:42;;;;;;;4.90;3.80;;;;;;;21.95;63.10;102178.91;5092344;27;98110;-69
2023/09/05 04:58:08;;;;;;;4.82;3.40;;;;;;;22.26;62.66;102185.06;5091877;27;98794;-69
2023/09/05 05:00:35;;;;;;;6.47;3.55;;;;;;;22.15;63.13;102186.69;5091000;27;98780;-69
2023/09/05 05:03:01;;;;;;;7.60;3.58;;;;;;;22.22;62.54;102188.91;5092672;27;98659;-69
2023/09/05 05:05:28;;;;;;;4.03;3.28;;;;;;;22.30;61.87;102185.75;5091732;27;97426;-69
2023/09/05 05:07:55;;;;;;;6.03;3.28;;;;;;;22.04;62.49;102183.78;5091870;27;98264;-69
2023/09/05 05:10:22;;;;;;;8.15;3.40;;;;;;;22.19;62.32;102182.81;5091096;27;98799;-69
2023/09/05 05:12:48;;;;;;;4.25;3.28;;;;;;;22.20;61.83;102190.81;5095792;27;96776;-68
2023/09/05 05:15:15;;;;;;;4.18;3.50;;;;;;;22.38;61.14;102179.88;5090268;27;101034;-68
2023/09/05 05:17:41;;;;;;;7.05;3.75;;;;;;;22.45;60.91;102176.69;5090797;27;98993;-68
2023/09/05 05:20:09;;;;;;;9.75;3.38;;;;;;;22.45;61.07;102165.91;5090244;27;99262;-68
2023/09/05 05:22:35;;;;;;;5.63;3.78;;;;;;;22.54;60.45;102178.81;5089736;27;97141;-68
2023/09/05 05:25:06;;;;;;;8.73;3.30;;;;;;;22.51;60.66;102176.28;5089872;27;98872;-68
2023/09/05 05:27:32;;;;;;;5.47;3.15;;;;;;;22.75;60.02;102173.06;5089921;27;98900;-69
2023/09/05 05:30:00;;;;;;;7.20;3.17;;;;;;;22.74;59.62;102168.63;5091008;27;99170;-67
2023/09/05 05:32:26;;;;;;;5.60;3.50;;;;;;;22.88;59.42;102166.78;5085371;27;98467;-69
2023/09/05 05:34:52;;;;;;;6.82;3.67;;;;;;;22.80;59.25;102162.84;5090724;27;96871;-70
2023/09/05 05:37:19;;;;;;;8.77;3.95;;;;;;;22.97;58.46;102158.09;5091232;27;98775;-70
2023/09/05 05:39:45;;;;;;;5.97;3.35;;;;;;;22.81;58.69;102160.06;5089299;27;99096;-70
2023/09/05 05:42:13;;;;;;;7.35;3.35;;;;;;;22.79;59.12;102153.91;5089773;27;98988;-70
2023/09/05 05:44:40;;;;;;;5.18;3.65;;;;;;;22.59;59.71;102144.34;5096593;27;98528;-70
2023/09/05 05:47:06;;;;;;;6.00;2.90;;;;;;;22.86;58.35;102147.16;5093067;27;99573;-69
2023/09/05 05:49:33;;;;;;;5.10;3.47;;;;;;;22.96;58.15;102147.44;5086297;27;99377;-70
2023/09/05 05:52:00;;;;;;;6.47;3.35;;;;;;;23.15;57.44;102139.00;5085753;27;97807;-69
2023/09/05 05:54:27;;;;;;;9.23;3.25;;;;;;;23.07;57.55;102136.78;5087433;27;97276;-70
2023/09/05 05:56:55;;;;;;;9.18;3.13;;;;;;;22.97;57.95;102138.38;5090552;27;99021;-70
2023/09/05 05:59:23;;;;;;;18.30;3.72;;;;;;;22.94;57.81;102147.50;5089874;27;98702;-70
2023/09/05 06:01:50;;;;;;;19.30;3.72;;;;;;;22.96;57.95;102152.81;5088335;27;97254;-70
2023/09/05 06:04:17;;;;;;;4.50;3.00;;;;;;;23.04;57.33;102151.31;5087847;27;97162;-70
2023/09/05 06:06:45;;;;;;;4.70;3.42;;;;;;;23.08;57.29;102151.13;5093080;27;98187;-69
2023/09/05 06:09:12;;;;;;;4.22;2.80;;;;;;;23.39;56.76;102145.44;5088917;27;100860;-69
2023/09/05 06:11:38;;;;;;;6.70;3.50;;;;;;;23.64;55.89;102145.53;5087817;27;97733;-69
2023/09/05 06:14:05;;;;;;;5.63;2.92;;;;;;;23.80;55.12;102150.75;5095533;27;96991;-68
2023/09/05 06:16:32;;;;;;;11.63;3.38;;;;;;;23.74;54.95;102152.03;5092390;27;98980;-69
2023/09/05 06:18:59;;;;;;;12.13;3.25;;;;;;;24.00;54.41;102150.22;5090206;27;99249;-69
2023/09/05 06:21:26;;;;;;;5.45;3.22;;;;;;;24.17;53.66;102163.41;5081263;27;99527;-67
2023/09/05 06:23:52;;;;;;;4.97;3.15;;;;;;;24.10;53.96;102163.94;5091966;27;97582;-69
2023/09/05 06:26:18;;;;;;;6.03;3.22;;;;;;;24.25;53.02;102159.34;5093871;27;99338;-69
2023/09/05 06:28:45;;;;;;;8.82;3.22;;;;;;;24.44;52.18;102159.75;5088864;27;97965;-68
2023/09/05 06:31:12;;;;;;;9.73;3.65;;;;;;;24.51;51.66;102161.03;5093961;27;97085;-69
2023/09/05 06:33:39;;;;;;;3.97;2.88;;;;;;;24.39;52.41;102154.69;5091763;27;96950;-69
2023/09/05 06:36:06;;;;;;;10.93;3.22;;;;;;;24.77;51.33;102159.16;5090533;27;99450;-68
2023/09/05 06:38:33;;;;;;;4.55;2.63;;;;;;;25.13;50.75;102150.22;5083360;27;98917;-69
2023/09/05 06:41:04;;;;;;;7.25;3.10;;;;;;;24.84;50.13;102153.19;5080244;27;96963;-69
2023/09/05 06:43:31;;;;;;;7.90;2.90;;;;;;;25.05;49.85;102149.91;5084300;27;97842;-70
2023/09/05 06:46:01;;;;;;;5.95;2.67;;;;;;;24.80;50.89;102153.53;5090275;27;98860;-69
2023/09/05 06:48:29;;;;;;;4.95;3.05;;;;;;;24.84;50.72;102164.00;5085005;27;98889;-69
2023/09/05 06:50:56;;;;;;;4.78;2.97;;;;;;;24.80;50.72;102158.94;5090721;27;98107;-69
2023/09/05 06:53:23;;;;;;;8.27;3.17;;;;;;;24.70;50.73;102152.47;5092905;27;100454;-68
2023/09/05 06:55:51;;;;;;;7.63;3.08;;;;;;;24.72;50.35;102161.34;5091986;27;99048;-69
2023/09/05 06:58:18;;;;;;;9.32;3.10;;;;;;;24.69;50.46;102161.53;5090074;27;99277;-70
2023/09/05 07:00:44;;;;;;;5.93;2.63;;;;;;;24.77;50.63;102164.56;5086782;27;97403;-69
2023/09/05 07:03:12;;;;;;;4.90;2.50;;;;;;;25.00;49.76;102161.09;5088657;27;96867;-69
2023/09/05 07:05:39;;;;;;;8.57;2.92;;;;;;;25.30;49.21;102158.78;5098026;27;98996;-69
2023/09/05 07:08:07;;;;;;;7.03;3.17;;;;;;;25.40;48.34;102153.56;5094054;27;99280;-67
2023/09/05 07:10:34;;;;;;;13.10;3.85;;;;;;;25.51;48.20;102158.16;5083999;27;100608;-68
2023/09/05 07:13:00;;;;;;;9.57;3.03;;;;;;;25.46;48.01;102172.03;5092263;27;97440;-67
2023/09/05 07:15:27;;;;;;;7.97;2.90;;;;;;;25.25;48.13;102166.38;5089713;27;102159;-68
2023/09/05 07:17:53;;;;;;;13.00;3.13;;;;;;;25.50;47.16;102169.94;5089672;27;98552;-69
2023/09/05 07:20:19;;;;;;;15.90;3.63;;;;;;;25.85;46.59;102160.03;5087201;27;97073;-69
2023/09/05 07:22:46;;;;;;;6.50;3.15;;;;;;;25.86;46.37;102161.75;5091940;27;97631;-68
2023/09/05 07:25:14;;;;;;;6.88;2.50;;;;;;;26.11;45.70;102166.09;5088348;27;98480;-68
2023/09/05 07:27:41;;;;;;;7.00;3.17;;;;;;;25.97;45.85;102161.78;5089734;27;98866;-68
2023/09/05 07:30:08;;;;;;;17.25;4.10;;;;;;;25.98;45.75;102166.22;5087490;27;97596;-68
2023/09/05 07:32:36;;;;;;;10.18;2.63;;;;;;;26.26;44.85;102162.19;5091476;27;97734;-69
2023/09/05 07:35:03;;;;;;;3.58;2.47;;;;;;;26.12;44.98;102173.25;5088303;27;98913;-69
2023/09/05 07:37:29;;;;;;;6.03;2.50;;;;;;;26.33;43.81;102174.28;5090134;27;98591;-69
2023/09/05 07:39:55;;;;;;;5.53;2.70;;;;;;;26.40;43.56;102169.22;5088304;27;96826;-70
2023/09/05 07:42:23;;;;;;;4.53;1.90;;;;;;;26.61;43.49;102185.63;5092066;27;97084;-70
2023/09/05 07:44:50;;;;;;;6.88;2.38;;;;;;;26.80;43.42;102177.72;5088161;27;99234;-70
2023/09/05 07:47:16;;;;;;;11.00;2.25;;;;;;;26.98;43.25;102183.56;5085458;27;97545;-69
2023/09/05 07:49:43;;;;;;;5.40;2.42;;;;;;;26.79;42.94;102187.72;5087123;27;98782;-70
2023/09/05 07:52:10;;;;;;;3.17;2.10;;;;;;;26.65;43.51;102184.41;5087273;27;96858;-68
2023/09/05 07:54:36;;;;;;;2.20;2.00;;;;;;;26.90;42.98;102184.19;5082631;27;99391;-69
2023/09/05 07:57:03;;;;;;;2.58;2.13;;;;;;;26.65;43.08;102187.97;5086650;27;98156;-69
2023/09/05 07:59:32;;;;;;;6.43;2.42;;;;;;;26.81;43.32;102179.47;5084805;27;97129;-68
2023/09/05 08:01:58;;;;;;;5.25;2.60;;;;;;;26.74;43.03;102175.53;5081742;27;97001;-68
2023/09/05 08:04:24;;;;;;;5.28;2.33;;;;;;;26.83;43.15;102172.06;5078604;27;99201;-68
2023/09/05 08:06:51;;;;;;;6.70;2.67;;;;;;;26.83;43.01;102174.78;5086798;27;99371;-69
2023/09/05 08:09:17;;;;;;;3.35;1.98;;;;;;;26.94;42.61;102172.94;5088519;27;97717;-70
2023/09/05 08:11:44;;;;;;;4.43;2.22;;;;;;;26.81;42.48;102174.03;5081181;27;97028;-70
2023/09/05 08:14:10;;;;;;;16.33;3.03;;;;;;;27.05;42.10;102165.75;5086105;27;99624;-69
2023/09/05 08:16:38;;;;;;;3.17;2.00;;;;;;;27.16;41.19;102161.19;5092229;27;98731;-70
2023/09/05 08:19:05;;;;;;;3.80;2.08;;;;;;;27.38;40.97;102162.94;5087168;27;99380;-70
2023/09/05 08:21:33;;;;;;;5.07;2.78;;;;;;;27.25;41.26;102160.41;5092239;27;97317;-69
2023/09/05 08:23:59;;;;;;;4.13;2.20;;;;;;;27.53;40.99;102156.25;5089688;27;98900;-69
2023/09/05 08:26:26;;;;;;;7.30;2.42;;;;;;;27.80;40.59;102157.59;5093229;27;97637;-69
2023/09/05 08:28:52;;;;;;;6.13;1.77;;;;;;;27.98;40.08;102159.59;5088910;27;97531;-68
2023/09/05 08:31:20;;;;;;;6.32;2.63;;;;;;;28.31;40.06;102154.94;5092618;27;96803;-70
2023/09/05 08:33:48;;;;;;;4.28;2.10;;;;;;;28.17;39.27;102166.16;5088487;27;99173;-69
2023/09/05 08:36:14;;;;;;;7.25;2.40;;;;;;;28.07;39.89;102163.38;5090033;27;98961;-68
2023/09/05 08:38:41;;;;;;;3.97;2.55;;;;;;;27.95;39.71;102164.44;5089683;27;97354;-69
2023/09/05 08:41:08;;;;;;;6.78;3.65;;;;;;;28.23;39.31;102157.47;5092883;27;97025;-69
2023/09/05 08:43:35;;;;;;;5.57;1.83;;;;;;;28.16;38.31;102159.03;5088252;27;99694;-70
2023/09/05 08:46:02;;;;;;;3.50;2.20;;;;;;;28.12;38.38;102161.97;5091002;27;99720;-69
2023/09/05 08:48:29;;;;;;;4.07;1.90;;;;;;;28.04;38.59;102150.91;5089192;27;96915;-70
2023/09/05 08:50:59;;;;;;;3.40;2.33;;;;;;;27.92;38.98;102148.41;5088723;27;99139;-70
2023/09/05 08:53:31;;;;;;;4.75;1.90;;;;;;;28.50;37.91;102147.75;5085962;27;99330;-69
2023/09/05 08:55:58;;;;;;;8.90;2.65;;;;;;;28.32;38.38;102151.22;5091309;27;98171;-69
2023/09/05 08:58:26;;;;;;;8.98;1.80;;;;;;;28.21;38.06;102152.19;5089803;27;98935;-69
2023/09/05 09:00:53;;;;;;;2.92;1.95;;;;;;;28.19;37.99;102156.91;5088976;27;98508;-69
2023/09/05 09:03:19;;;;;;;3.65;1.98;;;;;;;28.32;38.06;102148.50;5085166;27;97996;-68
2023/09/05 09:05:46;;;;;;;4.72;2.08;;;;;;;28.38;37.68;102146.13;5086592;27;98847;-69
2023/09/05 09:08:15;;;;;;;13.93;2.63;;;;;;;28.71;37.52;102161.28;5090327;27;97641;-69
2023/09/05 09:10:42;;;;;;;6.07;2.17;;;;;;;28.93;36.73;102152.94;5089013;27;97019;-69
2023/09/05 09:13:16;;;;;;;3.47;1.83;;;;;;;29.02;36.94;102153.06;5088480;27;99557;-69
2023/09/05 09:15:46;;;;;;;3.88;2.03;;;;;;;29.00;36.63;102149.66;5089946;27;97529;-69
2023/09/05 09:18:13;;;;;;;6.35;1.98;;;;;;;28.85;36.68;102136.44;5085857;27;96755;-69
2023/09/05 09:20:43;;;;;;;5.60;2.40;;;;;;;28.97;36.60;102133.59;5090539;27;97511;-70
2023/09/05 09:23:10;;;;;;;4.75;2.15;;;;;;;29.35;35.86;102136.38;5086275;27;99431;-69
2023/09/05 09:25:47;;;;;;;4.07;1.67;;;;;;;29.32;35.62;102139.38;5083652;27;99111;-70
2023/09/05 09:28:21;;;;;;;2.70;1.90;;;;;;;29.42;35.41;102136.66;5088582;27;98960;-69
2023/09/05 09:30:56;;;;;;;4.63;1.40;;;;;;;29.43;35.37;102128.38;5089408;27;97182;-69
2023/09/05 09:33:22;;;;;;;1.88;1.40;;;;;;;29.54;35.09;102122.75;5082878;27;102123;-69
2023/09/05 09:36:02;;;;;;;2.47;1.15;;;;;;;28.98;34.95;102122.56;5090657;27;98897;-70
2023/09/05 09:38:29;;;;;;;4.70;1.40;;;;;;;28.82;35.40;102133.97;5089536;27;97111;-69
2023/09/05 09:41:00;;;;;;;5.00;1.35;;;;;;;28.90;36.13;102115.13;5087541;27;99081;-69
2023/09/05 09:43:27;;;;;;;1.63;1.30;;;;;;;28.99;35.56;102110.69;5086359;27;99352;-70
2023/09/05 09:45:54;;;;;;;4.70;1.25;;;;;;;29.16;35.85;102120.00;5088817;27;99383;-69
2023/09/05 09:48:22;;;;;;;10.50;1.88;;;;;;;28.74;35.93;102109.38;5087115;27;97733;-69
2023/09/05 09:50:50;;;;;;;3.83;2.03;;;;;;;28.91;36.11;102110.53;5089054;27;97510;-71
2023/09/05 09:53:22;;;;;;;3.95;1.90;;;;;;;28.88;35.71;102099.94;5085599;27;99221;-71
2023/09/05 09:55:52;;;;;;;3.30;1.75;;;;;;;28.86;36.11;102101.94;5081145;27;99233;-71
2023/09/05 09:58:23;;;;;;;4.03;2.70;;;;;;;28.95;36.45;102095.63;5089795;27;96770;-72
2023/09/05 10:00:51;;;;;;;2.88;1.75;;;;;;;28.89;36.08;102086.19;5092906;27;97368;-72
2023/09/05 10:03:19;;;;;;;4.80;1.48;;;;;;;29.22;35.84;102089.50;5089003;27;99486;-70
2023/09/05 10:05:46;;;;;;;4.90;1.55;;;;;;;29.61;35.58;102087.63;5091894;27;98385;-71
2023/09/05 10:08:13;;;;;;;4.43;1.65;;;;;;;29.15;36.11;102091.06;5092890;27;97858;-72
2023/09/05 10:10:41;;;;;;;3.35;1.25;;;;;;;29.15;35.72;102086.50;5089313;27;97467;-71
2023/09/05 10:13:09;;;;;;;3.50;2.00;;;;;;;29.19;36.65;102084.34;5080600;27;98887;-71
2023/09/05 10:15:39;;;;;;;3.05;1.73;;;;;;;29.06;36.38;102091.94;5079680;27;99362;-71
2023/09/05 10:18:09;;;;;;;6.53;1.88;;;;;;;29.34;36.21;102082.09;5088469;27;96803;-71
2023/09/05 10:20:37;;;;;;;4.65;1.98;;;;;;;29.17;36.26;102089.94;5087577;27;97716;-72
2023/09/05 10:23:05;;;;;;;4.72;1.65;;;;;;;29.52;36.21;102083.09;5089976;27;98926;-71
2023/09/05 10:25:32;;;;;;;3.83;1.58;;;;;;;29.61;36.24;102082.19;5088670;27;101456;-72
2023/09/05 10:27:58;;;;;;;5.80;2.05;;;;;;;29.42;35.93;102074.03;5089666;27;96977;-71
2023/09/05 10:30:25;;;;;;;4.88;1.77;;;;;;;29.40;36.55;102063.31;5086977;27;97807;-71
2023/09/05 10:32:53;;;;;;;4.13;1.63;;;;;;;29.47;36.53;102058.16;5088590;27;99920;-71
2023/09/05 10:35:23;;;;;;;3.22;1.75;;;;;;;29.34;37.02;102061.19;5089331;27;98771;-71
2023/09/05 10:37:51;;;;;;;5.18;1.85;;;;;;;29.28;36.85;102054.41;5084322;27;96831;-72
2023/09/05 10:40:19;;;;;;;2.33;1.60;;;;;;;29.37;36.77;102065.47;5088618;27;98641;-71
2023/09/05 10:42:50;;;;;;;2.70;1.75;;;;;;;29.30;36.66;102054.25;5088433;27;99097;-71
2023/09/05 10:45:19;;;;;;;3.63;1.63;;;;;;;29.46;36.26;102053.72;5082574;27;100422;-72
2023/09/05 10:47:47;;;;;;;4.30;1.42;;;;;;;29.54;36.13;102042.94;5082822;27;97848;-72
2023/09/05 10:50:19;;;;;;;2.78;1.70;;;;;;;29.53;36.18;102050.25;5087435;27;98518;-71
2023/09/05 10:52:49;;;;;;;3.00;1.27;;;;;;;29.53;36.35;102046.69;5091872;27;98882;-71
2023/09/05 10:55:39;;;;;;;8.90;2.00;;;;;;;29.44;36.07;102050.25;5089748;27;99053;-71
2023/09/05 10:58:45;;;;;;;5.05;1.42;;;;;;;29.36;36.50;102050.13;5089467;27;98523;-72
2023/09/05 11:01:45;;;;;;;2.35;1.48;;;;;;;29.60;36.42;102048.66;5088785;27;97215;-71
2023/09/05 11:04:24;;;;;;;3.30;1.65;;;;;;;29.67;36.27;102032.56;5084983;27;101260;-72
2023/09/05 11:07:03;;;;;;;3.55;1.50;;;;;;;29.79;36.12;102044.19;5086689;27;98918;-72
2023/09/05 11:09:29;;;;;;;9.85;1.98;;;;;;;29.99;36.06;102033.09;5085399;27;97696;-71
2023/09/05 11:11:56;;;;;;;4.03;1.60;;;;;;;29.94;35.77;102042.69;5086087;27;97002;-71
2023/09/05 11:14:40;;;;;;;1.90;1.20;;;;;;;29.80;35.79;102032.28;5089151;27;99111;-72
2023/09/05 11:17:12;;;;;;;3.17;1.55;;;;;;;29.87;36.20;102033.38;5084670;27;101245;-72
2023/09/05 11:19:42;;;;;;;4.80;1.42;;;;;;;29.84;35.91;102033.69;5086122;27;96786;-71
2023/09/05 11:22:15;;;;;;;2.95;1.50;;;;;;;29.86;35.71;102026.22;5085256;27;97248;-70
2023/09/05 11:24:47;;;;;;;7.90;1.60;;;;;;;29.74;36.35;102025.53;5085524;27;99031;-71
2023/09/05 11:27:15;;;;;;;1.55;1.35;;;;;;;29.99;36.35;102026.78;5089572;27;99192;-71
2023/09/05 11:29:42;;;;;;;5.28;1.30;;;;;;;30.07;36.35;102024.16;5089244;27;97867;-72